Airfield :
LOGIN :

Register | Disclaimer

   EN    FR    IT 

 










Legend :    VFR   Marginal VFR   IFR   Intensive IFR   Very Intensive IFR
Visi :
Ceiling :
>= 8 km
>= 3000ft
5 to 8 km
1000 to 3000 ft
1500m to 5 km
500 to 1000 ft
800 to 1500m
200 to 500 ft
< 800m
< 200 ft
Symbols :   Thunderstorms  Fog  Heavy snow  Heavy precipitations  Wind > 20 kt
SIGMETs :     Misc.  Thunderstorms  Icing  Turbulence  Mountain Waves  Volcanic Ashes







- Airport Elevation : 160 ft
- IATA code : LRT
- Download approach charts


LFRH - Lorient Lann Bihoue

CURRENT METAR :
  • 240800Z AUTO 25009KT 9999 BKN013 BKN020 BKN031 19/15 Q1021 BECMG SCT013 SCT020

EXPIRED METARs :
  • 240730Z AUTO 27008KT 9999 SCT011 SCT016 19/15 Q1020 NOSIG
  • 240700Z AUTO 27006KT 9999 SCT010 18/15 Q1020 NOSIG
  • 240630Z AUTO 25005KT CAVOK 17/15 Q1020 NOSIG
  • 240600Z AUTO 00000KT 9999 SCT012 SCT022 16/16 Q1020 BECMG 26012KT
  • 240530Z AUTO 00000KT 9999 BKN016 BKN036 BKN043 15/15 Q1020 BECMG 26012KT

TAF TAF LFRH
Valid from the 23 at 18:00 until the 24 at 18:00 UTC


231700Z 2318/2418 27013KT 9999 BKN045
BECMG 2319/2321 CAVOK
PROB30
TEMPO 2323/2401 25003KT 4000 BR
BECMG 2401/2403 BKN015
BECMG 2408/2410 BKN025
TEMPO 2415/2418 25013G23KT -RADZ OVC013
No reported NOTAMs for that airfield.



MET'MAP, your aeronautical weather chart ! - Copyright ORBIFLY December 2007 - Disclaimer

ORBIFLY MET'MAP TEAM :

Programming & Development : Alexandra Zaïnal
Concept & Development : Baudouin d'Aumeries
Co-Development & Prog : Marc-Olivier Méhu
Technical & hardware support : Manuel Goepfert

Contact : metmap@orbifly.com




SOURCES & CREDITS :

   NOAA